createdAt,value
2022-08-18T00:00:13.754Z,15.98
2022-08-18T00:03:01.330Z,18.30
2022-08-18T00:05:39.374Z,17.98
2022-08-18T00:08:10.388Z,17.25
2022-08-18T00:10:43.674Z,17.77
2022-08-18T00:13:13.814Z,16.98
2022-08-18T00:15:48.861Z,16.70
2022-08-18T00:18:20.068Z,25.20
2022-08-18T00:20:50.551Z,16.90
2022-08-18T00:23:20.926Z,16.13
2022-08-18T00:25:51.780Z,15.30
2022-08-18T00:28:24.044Z,15.45
2022-08-18T00:30:54.649Z,15.70
2022-08-18T00:33:24.950Z,16.73
2022-08-18T00:35:55.514Z,15.82
2022-08-18T00:38:26.235Z,30.63
2022-08-18T00:40:58.021Z,30.13
2022-08-18T00:43:34.829Z,16.63
2022-08-18T00:46:04.949Z,15.55
2022-08-18T00:48:34.832Z,15.18
2022-08-18T00:51:09.437Z,18.08
2022-08-18T00:53:43.651Z,14.45
2022-08-18T00:56:24.343Z,15.18
2022-08-18T00:59:02.616Z,14.20
2022-08-18T01:01:34.475Z,12.65
2022-08-18T01:04:08.855Z,13.48
2022-08-18T01:06:47.020Z,13.40
2022-08-18T01:09:19.383Z,13.77
2022-08-18T01:11:49.608Z,12.98
2022-08-18T01:14:20.430Z,13.95
2022-08-18T01:17:11.627Z,12.88
2022-08-18T01:20:02.320Z,12.93
2022-08-18T01:22:41.340Z,14.32
2022-08-18T01:25:32.148Z,11.73
2022-08-18T01:28:04.768Z,10.77
2022-08-18T01:30:47.078Z,10.05
2022-08-18T01:33:17.772Z,10.15
2022-08-18T01:35:50.954Z,10.75
2022-08-18T01:38:22.505Z,12.48
2022-08-18T01:41:22.675Z,12.50
2022-08-18T01:43:43.346Z,12.57
2022-08-18T01:46:13.871Z,11.55
2022-08-18T01:48:44.665Z,11.15
2022-08-18T01:51:15.237Z,11.65
2022-08-18T01:53:46.035Z,13.55
2022-08-18T01:56:19.271Z,12.65
2022-08-18T01:58:49.493Z,10.13
2022-08-18T02:01:24.216Z,11.77
2022-08-18T02:04:34.023Z,11.68
2022-08-18T02:06:59.311Z,8.45
2022-08-18T02:09:30.145Z,9.27
2022-08-18T02:12:01.468Z,8.70
2022-08-18T02:14:31.820Z,9.55
2022-08-18T02:17:04.061Z,9.68
2022-08-18T02:19:38.611Z,9.40
2022-08-18T02:22:10.263Z,9.60
2022-08-18T02:24:40.650Z,9.10
2022-08-18T02:27:11.831Z,7.32
2022-08-18T02:29:42.750Z,8.15
2022-08-18T02:32:13.621Z,6.90
2022-08-18T02:34:44.334Z,7.50
2022-08-18T02:37:15.522Z,7.18
2022-08-18T02:39:46.562Z,7.75
2022-08-18T02:42:17.850Z,7.72
2022-08-18T02:44:48.271Z,8.30
2022-08-18T02:47:22.435Z,8.27
2022-08-18T02:49:52.617Z,7.05
2022-08-18T02:52:23.208Z,6.93
2022-08-18T02:54:54.245Z,6.15
2022-08-18T02:57:24.988Z,6.10
2022-08-18T02:59:55.499Z,6.65
2022-08-18T03:02:26.146Z,7.43
2022-08-18T03:04:56.773Z,6.25
2022-08-18T03:07:27.179Z,7.25
2022-08-18T03:09:59.175Z,7.13
2022-08-18T03:12:32.329Z,5.60
2022-08-18T03:15:03.651Z,5.90
2022-08-18T03:17:34.179Z,6.75
2022-08-18T03:20:05.413Z,7.25
2022-08-18T03:22:36.020Z,5.88
2022-08-18T03:25:06.793Z,6.30
2022-08-18T03:27:37.338Z,6.40
2022-08-18T03:30:11.279Z,14.27
2022-08-18T03:32:45.663Z,15.35
2022-08-18T03:35:16.505Z,15.10
2022-08-18T03:37:46.574Z,5.30
2022-08-18T03:40:16.929Z,6.55
2022-08-18T03:42:47.659Z,5.72
2022-08-18T03:45:18.199Z,5.78
2022-08-18T03:47:48.417Z,5.65
2022-08-18T03:50:20.186Z,5.45
2022-08-18T03:52:50.413Z,5.00
2022-08-18T03:55:20.675Z,5.43
2022-08-18T03:57:50.967Z,6.97
2022-08-18T04:00:21.565Z,5.32
2022-08-18T04:02:51.725Z,5.35
2022-08-18T04:05:22.234Z,5.80
2022-08-18T04:07:52.779Z,5.68
2022-08-18T04:10:23.455Z,6.05
2022-08-18T04:12:54.014Z,5.97
2022-08-18T04:15:24.901Z,5.65
2022-08-18T04:18:03.085Z,6.93
2022-08-18T04:20:34.994Z,5.95
2022-08-18T04:23:05.558Z,5.50
2022-08-18T04:25:37.038Z,5.45
2022-08-18T04:28:07.474Z,6.18
2022-08-18T04:30:38.855Z,7.03
2022-08-18T04:33:09.628Z,5.93
2022-08-18T04:35:39.775Z,6.25
2022-08-18T04:38:11.486Z,5.90
2022-08-18T04:40:43.012Z,6.05
2022-08-18T04:43:16.691Z,6.28
2022-08-18T04:45:52.734Z,5.70
2022-08-18T04:48:24.285Z,6.85
2022-08-18T04:50:54.410Z,5.95
2022-08-18T04:53:43.804Z,5.35
2022-08-18T04:56:21.361Z,5.75
2022-08-18T04:58:53.609Z,6.30
2022-08-18T05:01:25.334Z,10.50
2022-08-18T05:03:56.230Z,6.45
2022-08-18T05:06:27.970Z,7.00
2022-08-18T05:09:00.438Z,6.70
2022-08-18T05:11:34.874Z,7.15
2022-08-18T05:14:06.397Z,7.28
2022-08-18T05:16:48.030Z,6.68
2022-08-18T05:19:26.743Z,6.53
2022-08-18T05:21:59.746Z,6.18
2022-08-18T05:24:37.358Z,6.30
2022-08-18T05:27:09.041Z,6.05
2022-08-18T05:29:41.864Z,6.38
2022-08-18T05:32:40.912Z,6.40
2022-08-18T05:35:09.862Z,5.28
2022-08-18T05:37:59.659Z,5.70
2022-08-18T05:40:30.330Z,6.60
2022-08-18T05:43:01.412Z,6.57
2022-08-18T05:45:31.687Z,6.90
2022-08-18T05:48:03.070Z,6.88
2022-08-18T05:50:37.958Z,6.68
2022-08-18T05:53:13.434Z,6.78
2022-08-18T05:56:10.899Z,7.03
2022-08-18T05:58:44.986Z,6.85
2022-08-18T06:01:18.338Z,7.45
2022-08-18T06:04:01.249Z,7.32
2022-08-18T06:06:33.465Z,6.47
2022-08-18T06:09:23.971Z,6.93
2022-08-18T06:11:55.921Z,6.57
2022-08-18T06:14:26.838Z,6.57
2022-08-18T06:17:16.986Z,9.20
2022-08-18T06:19:53.238Z,6.40
2022-08-18T06:22:52.783Z,6.10
2022-08-18T06:25:35.786Z,5.43
2022-08-18T06:28:09.093Z,5.75
2022-08-18T06:30:48.443Z,5.78
2022-08-18T06:33:38.201Z,5.70
2022-08-18T06:36:28.146Z,5.70
2022-08-18T06:39:19.087Z,6.22
2022-08-18T06:41:50.604Z,5.28
2022-08-18T06:44:44.002Z,5.22
2022-08-18T06:47:34.329Z,5.18
2022-08-18T06:50:16.377Z,6.03
2022-08-18T06:53:00.713Z,10.63
2022-08-18T06:55:36.765Z,6.70
2022-08-18T07:47:09.909Z,6.40
2022-08-18T07:49:59.614Z,7.28
2022-08-18T07:52:44.269Z,6.40
2022-08-18T07:55:39.979Z,6.63
2022-08-18T07:58:21.561Z,6.85
2022-08-18T08:00:59.235Z,7.75
2022-08-18T08:03:49.630Z,6.43
2022-08-18T08:06:32.669Z,6.75
2022-08-18T08:09:22.392Z,6.38
2022-08-18T08:12:01.288Z,6.88
2022-08-18T08:14:51.673Z,6.10
2022-08-18T08:17:28.278Z,6.75
2022-08-18T08:20:18.018Z,6.72
2022-08-18T08:23:08.385Z,6.55
2022-08-18T08:25:48.097Z,6.60
2022-08-18T08:28:37.826Z,7.50
2022-08-18T08:31:35.461Z,7.13
2022-08-18T08:34:08.623Z,6.90
2022-08-18T08:36:41.946Z,7.57
2022-08-18T08:39:15.724Z,6.70
2022-08-18T08:41:54.382Z,7.57
2022-08-18T08:45:00.850Z,7.15
2022-08-18T08:47:37.486Z,7.03
2022-08-18T08:50:14.921Z,7.32
2022-08-18T08:52:57.618Z,7.18
2022-08-18T08:55:31.209Z,7.72
2022-08-18T08:58:21.329Z,7.20
2022-08-18T09:00:55.417Z,7.50
2022-08-18T09:03:33.136Z,6.93
2022-08-18T09:06:10.046Z,7.25
2022-08-18T09:09:00.475Z,6.75
2022-08-18T09:11:50.284Z,6.85
2022-08-18T09:14:40.001Z,6.82
2022-08-18T09:17:34.037Z,14.73
2022-08-18T09:20:24.836Z,29.67
2022-08-18T09:22:57.030Z,25.73
2022-08-18T09:25:47.112Z,19.60
2022-08-18T09:28:26.286Z,11.45
2022-08-18T09:31:19.691Z,7.75
2022-08-18T09:34:11.000Z,7.70
2022-08-18T09:36:58.465Z,7.63
2022-08-18T09:39:54.749Z,7.20
2022-08-18T09:42:48.430Z,7.35
2022-08-18T09:45:41.095Z,7.13
2022-08-18T09:48:31.773Z,7.35
2022-08-18T09:54:20.854Z,7.35
2022-08-18T09:56:59.461Z,6.97
2022-08-18T09:59:52.158Z,6.90
2022-08-18T10:02:48.713Z,6.80
2022-08-18T10:05:29.893Z,6.63
2022-08-18T10:08:24.063Z,6.22
2022-08-18T10:11:00.447Z,6.07
2022-08-18T10:13:49.152Z,7.05
2022-08-18T10:17:13.248Z,7.45
2022-08-18T10:19:42.579Z,7.60
2022-08-18T10:22:13.541Z,7.95
2022-08-18T10:25:14.043Z,7.15
2022-08-18T10:27:54.091Z,7.47
2022-08-18T10:30:57.410Z,8.75
2022-08-18T10:33:53.932Z,8.05
2022-08-18T10:36:44.135Z,8.93
2022-08-18T10:39:16.641Z,7.72
2022-08-18T10:41:55.219Z,8.05
2022-08-18T10:44:30.935Z,8.50
2022-08-18T10:47:02.713Z,8.82
2022-08-18T10:49:35.490Z,7.97
2022-08-18T10:52:21.066Z,9.20
2022-08-18T10:55:02.388Z,9.15
2022-08-18T10:57:52.150Z,11.20
2022-08-18T11:00:23.213Z,10.27
2022-08-18T11:06:14.505Z,7.88
2022-08-18T11:11:53.029Z,7.90
2022-08-18T11:14:50.198Z,8.07
2022-08-18T11:17:33.922Z,7.32
2022-08-18T11:20:05.174Z,8.32
2022-08-18T11:22:37.111Z,10.50
2022-08-18T11:25:24.240Z,9.45
2022-08-18T11:27:57.849Z,6.05
2022-08-18T11:30:32.070Z,6.55
2022-08-18T11:33:05.946Z,7.38
2022-08-18T11:35:47.717Z,47.22
2022-08-18T11:41:21.965Z,8.85
2022-08-18T11:43:58.484Z,8.90
2022-08-18T11:46:32.194Z,9.88
2022-08-18T11:49:05.537Z,10.07
2022-08-18T11:51:43.108Z,10.15
2022-08-18T11:54:31.651Z,10.45
2022-08-18T11:57:24.896Z,9.93
2022-08-18T12:00:00.765Z,10.70
2022-08-18T12:02:32.277Z,11.65
2022-08-18T12:05:08.607Z,10.27
2022-08-18T12:07:49.725Z,13.23
2022-08-18T12:10:29.969Z,20.75
2022-08-18T12:13:04.543Z,26.35
2022-08-18T12:15:46.345Z,25.02
2022-08-18T12:21:11.785Z,13.15
2022-08-18T12:23:48.771Z,12.55
2022-08-18T12:29:32.635Z,9.80
2022-08-18T12:32:08.630Z,10.00
2022-08-18T12:34:48.609Z,10.65
2022-08-18T12:37:58.246Z,9.68
2022-08-18T12:40:13.834Z,10.00
2022-08-18T12:42:46.873Z,9.90
2022-08-18T12:45:18.384Z,9.20
2022-08-18T12:47:49.789Z,8.93
2022-08-18T12:50:20.218Z,8.50
2022-08-18T12:53:02.476Z,7.95
2022-08-18T12:55:37.662Z,10.38
2022-08-18T12:58:14.388Z,9.82
2022-08-18T13:00:45.618Z,6.85
2022-08-18T13:03:18.894Z,6.25
2022-08-18T13:05:50.430Z,5.88
2022-08-18T13:08:30.304Z,6.32
2022-08-18T13:11:14.836Z,6.50
2022-08-18T13:13:53.236Z,6.45
2022-08-18T13:16:30.559Z,6.60
2022-08-18T13:19:01.221Z,7.50
2022-08-18T13:21:40.989Z,8.40
2022-08-18T13:24:15.146Z,6.88
2022-08-18T13:26:48.677Z,9.00
2022-08-18T13:29:19.700Z,9.13
2022-08-18T13:31:55.859Z,8.30
2022-08-18T13:34:30.134Z,8.88
2022-08-18T13:37:01.094Z,8.35
2022-08-18T13:39:34.075Z,9.35
2022-08-18T13:42:26.161Z,8.85
2022-08-18T13:44:57.030Z,10.65
2022-08-18T13:47:30.070Z,10.48
2022-08-18T13:50:01.508Z,9.88
2022-08-18T13:52:36.983Z,35.40
2022-08-18T13:55:13.675Z,42.25
2022-08-18T13:57:53.463Z,23.98
2022-08-18T14:00:29.910Z,11.90
2022-08-18T14:03:03.378Z,12.48
2022-08-18T14:05:36.410Z,10.63
2022-08-18T14:08:23.556Z,11.18
2022-08-18T14:10:56.750Z,11.10
2022-08-18T14:13:27.234Z,10.88
2022-08-18T14:16:00.289Z,12.27
2022-08-18T14:18:31.219Z,9.82
2022-08-18T14:21:22.907Z,10.48
2022-08-18T14:24:14.627Z,9.75
2022-08-18T14:26:52.837Z,9.63
2022-08-18T14:29:45.557Z,8.52
2022-08-18T14:32:17.917Z,7.53
2022-08-18T14:34:50.065Z,7.80
2022-08-18T14:37:22.157Z,8.10
2022-08-18T14:39:54.267Z,8.13
2022-08-18T14:42:32.991Z,7.25
2022-08-18T14:45:17.882Z,7.60
2022-08-18T14:48:04.564Z,7.60
2022-08-18T14:50:40.298Z,8.05
2022-08-18T14:53:22.314Z,7.70
2022-08-18T14:55:54.508Z,7.05
2022-08-18T14:58:30.314Z,6.82
2022-08-18T15:01:10.426Z,6.60
2022-08-18T15:03:42.443Z,6.95
2022-08-18T15:06:17.075Z,6.70
2022-08-18T15:08:53.833Z,5.90
2022-08-18T15:11:24.642Z,6.90
2022-08-18T15:13:56.103Z,7.68
2022-08-18T15:16:31.530Z,7.25
2022-08-18T15:19:03.326Z,7.03
2022-08-18T15:22:15.894Z,6.68
2022-08-18T15:25:06.435Z,6.10
2022-08-18T15:27:43.270Z,7.10
2022-08-18T15:30:33.365Z,6.72
2022-08-18T15:33:04.057Z,6.18
2022-08-18T15:35:36.070Z,6.22
2022-08-18T15:38:09.608Z,5.82
2022-08-18T15:40:52.934Z,6.20
2022-08-18T15:43:31.404Z,6.80
2022-08-18T15:46:03.719Z,7.60
2022-08-18T15:48:34.853Z,7.18
2022-08-18T15:51:11.612Z,7.68
2022-08-18T15:53:44.829Z,7.38
2022-08-18T15:56:20.812Z,6.45
2022-08-18T15:58:52.321Z,6.60
2022-08-18T16:01:32.266Z,5.95
2022-08-18T16:04:05.005Z,6.80
2022-08-18T16:06:36.884Z,7.95
2022-08-18T16:09:08.081Z,7.32
2022-08-18T16:11:39.037Z,51.97
2022-08-18T16:14:10.602Z,32.10
2022-08-18T16:16:42.543Z,8.35
2022-08-18T16:19:13.068Z,7.38
2022-08-18T16:21:43.592Z,8.25
2022-08-18T16:24:17.848Z,8.27
2022-08-18T16:26:48.982Z,10.73
2022-08-18T16:29:19.495Z,9.60
2022-08-18T16:31:50.805Z,8.32
2022-08-18T16:34:21.042Z,9.25
2022-08-18T16:36:51.631Z,9.95
2022-08-18T16:39:21.829Z,8.75
2022-08-18T16:41:53.038Z,7.88
2022-08-18T16:44:23.656Z,7.35
2022-08-18T16:46:54.688Z,7.40
2022-08-18T16:49:25.360Z,8.00
2022-08-18T16:51:55.978Z,9.55
2022-08-18T16:54:26.258Z,12.27
2022-08-18T16:56:56.766Z,10.68
2022-08-18T16:59:46.996Z,9.57
2022-08-18T17:02:37.123Z,9.32
2022-08-18T17:05:08.167Z,9.90
2022-08-18T17:07:39.506Z,8.82
2022-08-18T17:10:10.178Z,10.20
2022-08-18T17:12:40.626Z,9.40
2022-08-18T17:15:11.156Z,9.15
2022-08-18T17:17:41.589Z,10.80
2022-08-18T17:20:12.481Z,11.18
2022-08-18T17:22:43.408Z,10.07
2022-08-18T17:25:14.977Z,9.55
2022-08-18T17:27:48.662Z,10.60
2022-08-18T17:30:25.067Z,10.93
2022-08-18T17:33:03.569Z,12.27
2022-08-18T17:35:41.588Z,12.00
2022-08-18T17:38:17.074Z,11.60
2022-08-18T17:40:50.112Z,11.68
2022-08-18T17:46:19.709Z,12.48
2022-08-18T17:48:53.938Z,13.48
2022-08-18T17:51:44.600Z,13.65
2022-08-18T17:54:24.898Z,14.35
2022-08-18T17:56:57.292Z,12.85
2022-08-18T17:59:51.948Z,12.75
2022-08-18T18:02:28.725Z,12.10
2022-08-18T18:05:01.995Z,12.55
2022-08-18T18:07:42.130Z,13.75
2022-08-18T18:10:14.087Z,14.57
2022-08-18T18:12:45.406Z,13.57
2022-08-18T18:15:32.611Z,14.25
2022-08-18T18:18:21.059Z,14.60
2022-08-18T18:21:10.196Z,13.70
2022-08-18T18:23:42.873Z,13.13
2022-08-18T18:26:32.647Z,12.48
2022-08-18T18:29:23.063Z,12.52
2022-08-18T18:32:13.857Z,13.13
2022-08-18T18:34:48.851Z,12.07
2022-08-18T18:37:27.612Z,11.30
2022-08-18T18:39:59.981Z,11.82
2022-08-18T18:42:32.619Z,12.82
2022-08-18T18:45:05.272Z,11.85
2022-08-18T18:47:47.188Z,12.15
2022-08-18T18:50:21.538Z,12.60
2022-08-18T18:52:58.344Z,12.43
2022-08-18T18:55:29.717Z,11.20
2022-08-18T18:58:20.727Z,10.45
2022-08-18T19:00:53.731Z,11.73
2022-08-18T19:03:44.376Z,12.20
2022-08-18T19:06:34.119Z,12.27
2022-08-18T19:09:24.756Z,12.85
2022-08-18T19:12:03.507Z,11.43
2022-08-18T19:14:40.992Z,12.02
2022-08-18T19:17:22.740Z,12.82
2022-08-18T19:19:58.203Z,13.27
2022-08-18T19:22:32.699Z,12.13
2022-08-18T19:25:10.417Z,12.30
2022-08-18T19:27:47.588Z,13.88
2022-08-18T19:30:19.189Z,13.75
2022-08-18T19:32:52.219Z,14.00
2022-08-18T19:35:35.870Z,13.93
2022-08-18T19:38:20.208Z,13.20
2022-08-18T19:41:00.084Z,13.73
2022-08-18T19:43:38.479Z,13.50
2022-08-18T19:46:28.184Z,13.77
2022-08-18T19:49:18.276Z,13.38
2022-08-18T19:51:50.131Z,13.60
2022-08-18T19:54:35.321Z,14.50
2022-08-18T19:57:25.179Z,14.02
2022-08-18T20:00:14.986Z,13.10
2022-08-18T20:03:05.799Z,13.45
2022-08-18T20:05:49.261Z,13.65
2022-08-18T20:08:39.552Z,13.27
2022-08-18T20:11:41.475Z,13.43
2022-08-18T20:14:14.367Z,13.00
2022-08-18T20:16:45.951Z,12.88
2022-08-18T20:19:36.118Z,12.82
2022-08-18T20:22:26.163Z,12.43
2022-08-18T20:25:01.074Z,12.38
2022-08-18T20:27:51.329Z,12.57
2022-08-18T20:30:41.327Z,14.73
2022-08-18T20:33:19.444Z,12.45
2022-08-18T20:35:54.379Z,11.18
2022-08-18T20:38:36.208Z,13.20
2022-08-18T20:41:29.173Z,12.65
2022-08-18T20:44:29.326Z,13.00
2022-08-18T20:47:19.430Z,12.43
2022-08-18T20:50:09.392Z,11.70
2022-08-18T20:53:02.746Z,12.23
2022-08-18T20:55:58.229Z,13.02
2022-08-18T20:58:34.889Z,13.57
2022-08-18T21:01:05.420Z,12.75
2022-08-18T21:03:43.664Z,13.68
2022-08-18T21:06:15.434Z,14.10
2022-08-18T21:08:53.552Z,13.63
2022-08-18T21:11:32.437Z,14.13
2022-08-18T21:14:04.055Z,14.07
2022-08-18T21:16:39.144Z,14.50
2022-08-18T21:19:15.242Z,14.38
2022-08-18T21:21:50.621Z,14.35
2022-08-18T21:24:35.065Z,14.68
2022-08-18T21:27:09.887Z,14.43
2022-08-18T21:29:47.083Z,14.25
2022-08-18T21:32:32.798Z,14.63
2022-08-18T21:35:10.062Z,15.95
2022-08-18T21:37:43.989Z,16.73
2022-08-18T21:40:15.047Z,15.18
2022-08-18T21:42:48.531Z,14.20
2022-08-18T21:45:21.159Z,14.52
2022-08-18T21:47:57.952Z,15.57
2022-08-18T21:50:30.010Z,14.43
2022-08-18T21:53:06.545Z,14.05
2022-08-18T21:55:41.864Z,14.43
2022-08-18T21:58:33.823Z,14.90
2022-08-18T22:01:15.306Z,13.48
2022-08-18T22:04:14.389Z,13.85
2022-08-18T22:06:49.610Z,13.68
2022-08-18T22:09:41.783Z,14.15
2022-08-18T22:12:51.694Z,15.65
2022-08-18T22:15:24.103Z,15.40
2022-08-18T22:18:14.212Z,16.20
2022-08-18T22:21:06.411Z,16.67
2022-08-18T22:24:02.998Z,15.27
2022-08-18T22:26:35.893Z,14.73
2022-08-18T22:29:26.012Z,14.25
2022-08-18T22:31:57.131Z,15.32
2022-08-18T22:34:29.720Z,13.93
2022-08-18T22:37:04.793Z,14.75
2022-08-18T22:39:40.949Z,15.52
2022-08-18T22:42:11.535Z,15.55
2022-08-18T22:44:42.472Z,17.83
2022-08-18T22:47:12.725Z,17.50
2022-08-18T22:49:43.887Z,17.83
2022-08-18T22:52:18.484Z,18.25
2022-08-18T22:54:49.559Z,15.95
2022-08-18T22:57:23.578Z,17.02
2022-08-18T22:59:54.167Z,17.52
2022-08-18T23:02:24.584Z,18.83
2022-08-18T23:04:54.862Z,18.58
2022-08-18T23:07:25.081Z,18.60
2022-08-18T23:09:55.552Z,18.75
2022-08-18T23:12:25.697Z,17.85
2022-08-18T23:14:56.523Z,17.30
2022-08-18T23:17:26.964Z,19.33
2022-08-18T23:19:57.933Z,19.58
2022-08-18T23:22:29.559Z,20.38
2022-08-18T23:25:00.225Z,19.15
2022-08-18T23:27:39.536Z,23.30
2022-08-18T23:30:10.809Z,21.90
2022-08-18T23:32:41.287Z,20.25
2022-08-18T23:35:12.003Z,21.48
2022-08-18T23:37:43.089Z,19.67
2022-08-18T23:40:17.717Z,18.73
2022-08-18T23:42:52.737Z,18.27
2022-08-18T23:45:24.019Z,15.75
2022-08-18T23:47:57.613Z,14.80
2022-08-18T23:50:29.460Z,28.33
2022-08-18T23:53:00.915Z,35.30
2022-08-18T23:55:31.269Z,30.80
2022-08-18T23:58:01.305Z,12.30
